Almozara, Spain
Current Conditions -  °F | °C
As of 5:00 PM on Friday 28 Nov 2014 (Local Time) from LEZG Reporting Station
Light Rain Light Rain  
Wind Chill: 59°   Ceiling: 6200
Heat Index: 59°   Visibility: 6mi
Dew Point: 50°   Wind: 16mph
Humidity: 72%   Direction: 120°ESE
Pressure: 29.26"   Gusts: NA
Location:  41.66°N, 0.9°W
Report Text: LEZG 281600Z 12014KT 9999 -RA FEW050 BKN062 15/10 Q0991
Loading
Personal Weather Stations






























Interactive Weather Map New forecast layout! Learn more

10-Day Weather Forecast

Advertisements
Track Severe Weather on mobile